Time;durP1;ratioP1;P1;durP2;ratioP2;P2;SDS_P1;SDS_P2;PMS_P1;PMS_P2;Temp;Humidity;BMP_temperature;BMP_pressure;BME280_temperature;BME280_humidity;BME280_pressure;Samples;Min_cycle;Max_cycle;Signal;HPM_P1;HPM_P2
2022/12/26 00:00:16;;;;;;;18.47;15.10;;;;;;;;;;6178037;23;20144;-68
2022/12/26 00:02:41;;;;;;;20.57;15.63;;;;;;;;;;6175129;23;20165;-68
2022/12/26 00:05:06;;;;;;;18.00;14.57;;;;;;;;;;6179571;23;20160;-69
2022/12/26 00:07:32;;;;;;;16.93;14.63;;;;;;;;;;6175822;23;20160;-68
2022/12/26 00:09:57;;;;;;;15.90;14.07;;;;;;;;;;6177750;23;20156;-68
2022/12/26 00:12:22;;;;;;;16.23;14.27;;;;;;;;;;6179471;23;20193;-68
2022/12/26 00:14:48;;;;;;;18.80;15.53;;;;;;;;;;6179293;23;20236;-68
2022/12/26 00:17:13;;;;;;;18.30;14.90;;;;;;;;;;6178163;23;20145;-68
2022/12/26 00:19:38;;;;;;;20.60;16.70;;;;;;;;;;6178347;23;20148;-68
2022/12/26 00:22:04;;;;;;;25.10;16.20;;;;;;;;;;6177662;23;20599;-68
2022/12/26 00:24:29;;;;;;;22.27;17.27;;;;;;;;;;6175959;23;20180;-69
2022/12/26 00:26:54;;;;;;;38.23;17.10;;;;;;;;;;6176333;23;20156;-68
2022/12/26 00:29:21;;;;;;;39.83;17.50;;;;;;;;;;6178370;23;20599;-68
2022/12/26 00:31:48;;;;;;;28.33;17.30;;;;;;;;;;6176276;23;20172;-69
2022/12/26 00:34:13;;;;;;;20.03;15.60;;;;;;;;;;6177125;23;20387;-68
2022/12/26 00:36:39;;;;;;;20.83;16.53;;;;;;;;;;6176871;23;20423;-69
2022/12/26 00:39:04;;;;;;;19.90;15.47;;;;;;;;;;6178340;23;20264;-68
2022/12/26 00:41:29;;;;;;;29.30;18.47;;;;;;;;;;6172846;23;20583;-68
2022/12/26 00:43:55;;;;;;;20.33;16.00;;;;;;;;;;6176084;23;20199;-67
2022/12/26 00:46:20;;;;;;;20.00;14.70;;;;;;;;;;6177617;23;20157;-68
2022/12/26 00:48:46;;;;;;;19.03;15.53;;;;;;;;;;6177656;23;20497;-68
2022/12/26 00:51:12;;;;;;;22.93;14.83;;;;;;;;;;6181236;23;20148;-69
2022/12/26 00:53:37;;;;;;;39.63;16.63;;;;;;;;;;6179382;23;20195;-70
2022/12/26 00:56:03;;;;;;;35.23;16.90;;;;;;;;;;6181906;23;20563;-68
2022/12/26 00:58:28;;;;;;;38.03;15.00;;;;;;;;;;6179789;23;20179;-68
2022/12/26 01:00:53;;;;;;;26.73;15.90;;;;;;;;;;6181114;23;20192;-69
2022/12/26 01:03:19;;;;;;;58.10;15.90;;;;;;;;;;6181342;23;20164;-68
2022/12/26 01:05:48;;;;;;;34.20;15.97;;;;;;;;;;6179994;23;20491;-69
2022/12/26 01:08:13;;;;;;;88.47;16.67;;;;;;;;;;6180718;23;20148;-69
2022/12/26 01:10:42;;;;;;;47.87;16.60;;;;;;;;;;6180350;23;21270;-70
2022/12/26 01:13:07;;;;;;;34.40;15.40;;;;;;;;;;6181790;23;20211;-68
2022/12/26 01:15:33;;;;;;;40.37;16.40;;;;;;;;;;6181023;23;20898;-69
2022/12/26 01:17:59;;;;;;;22.30;15.00;;;;;;;;;;6175882;23;20157;-70
2022/12/26 01:20:24;;;;;;;21.30;15.60;;;;;;;;;;6177277;23;20152;-68
2022/12/26 01:22:50;;;;;;;48.23;15.67;;;;;;;;;;6176186;23;20497;-68
2022/12/26 01:25:15;;;;;;;31.80;15.17;;;;;;;;;;6177350;23;21009;-68
2022/12/26 01:27:40;;;;;;;64.33;14.37;;;;;;;;;;6180075;23;20161;-69
2022/12/26 01:30:06;;;;;;;69.70;15.77;;;;;;;;;;6181385;23;20591;-68
2022/12/26 01:32:31;;;;;;;26.70;14.80;;;;;;;;;;6178913;23;20169;-69
2022/12/26 01:34:56;;;;;;;27.70;15.17;;;;;;;;;;6181307;23;20172;-69
2022/12/26 01:37:25;;;;;;;33.27;16.70;;;;;;;;;;6178760;23;20671;-68
2022/12/26 01:39:50;;;;;;;28.73;14.87;;;;;;;;;;6178869;23;20278;-68
2022/12/26 01:42:16;;;;;;;67.07;15.00;;;;;;;;;;6177088;23;20388;-69
2022/12/26 01:45:05;;;;;;;28.50;14.57;;;;;;;;;;6176175;23;20227;-68
2022/12/26 01:47:56;;;;;;;26.00;16.73;;;;;;;;;;6166220;23;20388;-68
2022/12/26 01:50:28;;;;;;;25.67;15.33;;;;;;;;;;6141847;23;20400;-68
2022/12/26 01:52:55;;;;;;;25.90;16.63;;;;;;;;;;6176015;23;20391;-68
2022/12/26 01:55:21;;;;;;;27.70;15.37;;;;;;;;;;6179236;23;20447;-68
2022/12/26 01:57:53;;;;;;;20.83;15.07;;;;;;;;;;6178663;23;20849;-68
2022/12/26 02:00:18;;;;;;;36.13;17.10;;;;;;;;;;6177110;23;20594;-68
2022/12/26 02:05:34;;;;;;;27.43;16.67;;;;;;;;;;6177379;23;20481;-68
2022/12/26 02:08:11;;;;;;;24.27;17.07;;;;;;;;;;6173551;23;20909;-67
2022/12/26 02:10:48;;;;;;;23.30;17.77;;;;;;;;;;6175640;23;20379;-67
2022/12/26 02:13:14;;;;;;;23.50;16.40;;;;;;;;;;6177023;23;20419;-68
2022/12/26 02:15:39;;;;;;;27.80;17.77;;;;;;;;;;6177514;23;20415;-68
2022/12/26 02:18:05;;;;;;;33.10;17.47;;;;;;;;;;6176656;23;20149;-68
2022/12/26 02:20:35;;;;;;;28.80;18.30;;;;;;;;;;6177586;23;20153;-67
2022/12/26 02:23:09;;;;;;;26.50;17.57;;;;;;;;;;6175322;23;20504;-68
2022/12/26 02:25:40;;;;;;;25.23;17.50;;;;;;;;;;6179294;23;20446;-68
2022/12/26 02:28:06;;;;;;;27.33;18.87;;;;;;;;;;6179532;23;20372;-70
2022/12/26 02:30:54;;;;;;;30.87;20.13;;;;;;;;;;6178352;23;20371;-68
2022/12/26 02:33:30;;;;;;;25.87;17.77;;;;;;;;;;6134748;23;20742;-68
2022/12/26 02:36:10;;;;;;;24.53;16.90;;;;;;;;;;6178214;23;20772;-68
2022/12/26 02:38:45;;;;;;;22.63;16.50;;;;;;;;;;6175088;23;20883;-67
2022/12/26 02:41:29;;;;;;;24.87;17.70;;;;;;;;;;6175146;23;20857;-68
2022/12/26 02:47:09;;;;;;;24.17;16.33;;;;;;;;;;6178754;23;20395;-68
2022/12/26 03:13:09;;;;;;;20.97;15.87;;;;;;;;;;6179030;23;20375;-68
2022/12/26 03:14:36;;;;;;;12.10;9.87;;;;;;;;;;6215569;22;20449;-81
2022/12/26 03:17:18;;;;;;;13.70;10.70;;;;;;;;;;6256211;23;20383;-83
2022/12/26 03:20:00;;;;;;;14.50;11.93;;;;;;;;;;6231903;23;20379;-82
2022/12/26 03:22:31;;;;;;;12.07;9.97;;;;;;;;;;6231888;23;20413;-82
2022/12/26 03:27:46;;;;;;;12.87;10.83;;;;;;;;;;6202983;23;20363;-82
2022/12/26 03:32:58;;;;;;;14.20;10.97;;;;;;;;;;6201582;23;20195;-82
2022/12/26 03:35:26;;;;;;;12.77;10.77;;;;;;;;;;6201755;23;20407;-82
2022/12/26 03:37:56;;;;;;;14.57;11.57;;;;;;;;;;6200524;23;20153;-82
2022/12/26 04:20:25;;;;;;;16.80;11.80;;;;;;;;;;6204105;23;20356;-82
2022/12/26 04:45:18;;;;;;;13.40;11.50;;;;;;;;;;6201791;23;20355;-82
2022/12/26 04:50:10;;;;;;;13.43;12.00;;;;;;;;;;6203167;23;20388;-83
2022/12/26 04:50:29;;;;;;;12.53;11.13;;;;;;;;;;6203743;23;20436;-82
2022/12/26 04:52:58;;;;;;;15.00;13.20;;;;;;;;;;6202534;23;20380;-82
2022/12/26 04:55:25;;;;;;;16.80;12.90;;;;;;;;;;6203547;23;20169;-81
2022/12/26 04:57:50;;;;;;;15.70;13.37;;;;;;;;;;6199641;23;20357;-81
2022/12/26 05:00:16;;;;;;;16.87;14.10;;;;;;;;;;6199674;23;20376;-81
2022/12/26 05:11:03;;;;;;;17.50;15.53;;;;;;;;;;6201915;23;20375;-81
2022/12/26 05:13:28;;;;;;;15.80;13.93;;;;;;;;;;6201496;23;20411;-82
2022/12/26 05:29:44;;;;;;;21.60;17.83;;;;;;;;;;6203346;23;20356;-81
2022/12/26 05:32:09;;;;;;;21.67;19.10;;;;;;;;;;6200053;23;20376;-80
2022/12/26 05:34:35;;;;;;;23.50;20.10;;;;;;;;;;6196344;23;20203;-80
2022/12/26 05:37:00;;;;;;;24.37;20.23;;;;;;;;;;6193775;23;20141;-79
2022/12/26 05:39:26;;;;;;;23.10;19.53;;;;;;;;;;6189919;23;20879;-80
2022/12/26 05:41:51;;;;;;;23.73;20.40;;;;;;;;;;6198581;23;20144;-80
2022/12/26 05:44:16;;;;;;;23.97;19.93;;;;;;;;;;6192123;23;20175;-80
2022/12/26 05:46:42;;;;;;;25.20;20.03;;;;;;;;;;6189202;23;20145;-80
2022/12/26 05:49:07;;;;;;;22.40;19.90;;;;;;;;;;6190229;23;20141;-80
2022/12/26 05:51:33;;;;;;;22.67;19.27;;;;;;;;;;6198048;23;20145;-81
2022/12/26 05:53:59;;;;;;;34.77;19.87;;;;;;;;;;6193607;23;20281;-81
2022/12/26 05:56:24;;;;;;;22.97;20.37;;;;;;;;;;6194042;23;20435;-80
2022/12/26 05:58:56;;;;;;;24.40;20.17;;;;;;;;;;6191411;23;20145;-79
2022/12/26 06:01:22;;;;;;;24.00;19.40;;;;;;;;;;6189170;23;20148;-78
2022/12/26 06:03:49;;;;;;;21.93;18.27;;;;;;;;;;6196881;23;20380;-79
2022/12/26 06:06:14;;;;;;;20.70;18.27;;;;;;;;;;6198847;23;20236;-81
2022/12/26 06:08:40;;;;;;;21.70;18.73;;;;;;;;;;6198579;23;20432;-81
2022/12/26 06:11:10;;;;;;;22.77;19.07;;;;;;;;;;6199742;23;20159;-80
2022/12/26 06:13:35;;;;;;;20.10;17.50;;;;;;;;;;6192701;23;20184;-80
2022/12/26 06:16:08;;;;;;;21.57;18.00;;;;;;;;;;6186742;23;20458;-80
2022/12/26 06:18:33;;;;;;;23.03;17.70;;;;;;;;;;6188204;23;20141;-79
2022/12/26 06:21:01;;;;;;;28.23;25.20;;;;;;;;;;6184372;23;20381;-78
2022/12/26 06:23:27;;;;;;;19.37;17.37;;;;;;;;;;6185788;23;20164;-79
2022/12/26 06:25:53;;;;;;;19.80;17.17;;;;;;;;;;6182279;23;20411;-79
2022/12/26 06:28:19;;;;;;;21.60;19.30;;;;;;;;;;6182031;23;20546;-78
2022/12/26 06:30:44;;;;;;;20.60;17.83;;;;;;;;;;6185993;23;20917;-79
2022/12/26 06:33:09;;;;;;;19.67;17.57;;;;;;;;;;6184611;23;20256;-79
2022/12/26 06:35:34;;;;;;;18.77;16.67;;;;;;;;;;6185708;23;20177;-80
2022/12/26 06:38:00;;;;;;;20.50;18.17;;;;;;;;;;6182977;23;20878;-78
2022/12/26 06:40:27;;;;;;;23.27;18.87;;;;;;;;;;6183098;23;20227;-78
2022/12/26 06:42:53;;;;;;;20.50;17.67;;;;;;;;;;6182722;23;20391;-78
2022/12/26 06:45:18;;;;;;;21.07;18.67;;;;;;;;;;6181653;23;20364;-78
2022/12/26 06:47:45;;;;;;;19.13;17.23;;;;;;;;;;6183480;23;20217;-78
2022/12/26 06:50:10;;;;;;;20.30;18.20;;;;;;;;;;6181105;23;20627;-78
2022/12/26 06:52:35;;;;;;;22.07;19.63;;;;;;;;;;6182727;23;20368;-78
2022/12/26 06:55:01;;;;;;;20.70;18.53;;;;;;;;;;6181321;23;20215;-78
2022/12/26 06:57:26;;;;;;;21.80;19.07;;;;;;;;;;6180341;23;20179;-78
2022/12/26 06:59:51;;;;;;;23.53;19.60;;;;;;;;;;6182136;23;20145;-78
2022/12/26 07:02:16;;;;;;;22.00;18.90;;;;;;;;;;6180035;23;20224;-78
2022/12/26 07:04:42;;;;;;;18.07;16.13;;;;;;;;;;6183201;23;20188;-80
2022/12/26 07:07:07;;;;;;;18.30;16.40;;;;;;;;;;6180198;23;20159;-78
2022/12/26 07:09:32;;;;;;;20.83;16.53;;;;;;;;;;6180642;23;20180;-79
2022/12/26 07:11:58;;;;;;;16.63;14.93;;;;;;;;;;6180714;23;20148;-78
2022/12/26 07:14:23;;;;;;;18.13;16.13;;;;;;;;;;6181115;23;20259;-79
2022/12/26 07:16:48;;;;;;;18.33;15.90;;;;;;;;;;6180144;23;20232;-78
2022/12/26 07:19:14;;;;;;;16.40;13.90;;;;;;;;;;6179764;23;20361;-78
2022/12/26 07:21:40;;;;;;;18.70;15.40;;;;;;;;;;6177949;23;20492;-77
2022/12/26 07:24:06;;;;;;;16.37;14.70;;;;;;;;;;6189843;23;20439;-82
2022/12/26 07:26:31;;;;;;;19.37;14.93;;;;;;;;;;6197464;23;20191;-80
2022/12/26 07:28:57;;;;;;;18.37;15.33;;;;;;;;;;6198061;23;20152;-80
2022/12/26 07:31:23;;;;;;;17.47;15.60;;;;;;;;;;6196764;23;20145;-80
2022/12/26 07:33:48;;;;;;;16.47;14.33;;;;;;;;;;6194837;23;20407;-81
2022/12/26 07:36:14;;;;;;;17.13;13.93;;;;;;;;;;6197602;23;20168;-81
2022/12/26 07:38:39;;;;;;;15.77;14.17;;;;;;;;;;6197161;23;20380;-80
2022/12/26 07:43:51;;;;;;;18.47;15.43;;;;;;;;;;6195461;23;20243;-81
2022/12/26 07:46:16;;;;;;;18.67;16.07;;;;;;;;;;6201137;23;20371;-81
2022/12/26 07:48:42;;;;;;;16.37;14.17;;;;;;;;;;6198354;23;20244;-81
2022/12/26 07:51:07;;;;;;;17.13;14.77;;;;;;;;;;6198735;23;20156;-80
2022/12/26 07:53:33;;;;;;;19.20;15.50;;;;;;;;;;6200428;23;20167;-81
2022/12/26 07:55:58;;;;;;;16.30;14.43;;;;;;;;;;6200005;23;20175;-81
2022/12/26 07:58:24;;;;;;;17.10;14.23;;;;;;;;;;6199509;23;20211;-81
2022/12/26 08:00:49;;;;;;;18.13;14.50;;;;;;;;;;6201680;23;20149;-81
2022/12/26 08:03:15;;;;;;;21.77;16.07;;;;;;;;;;6200002;23;20179;-81
2022/12/26 08:05:43;;;;;;;21.00;17.00;;;;;;;;;;6201112;23;20223;-81
2022/12/26 08:08:08;;;;;;;20.60;15.03;;;;;;;;;;6202564;23;20147;-81
2022/12/26 08:10:33;;;;;;;18.57;13.07;;;;;;;;;;6198158;23;20376;-81
2022/12/26 08:12:59;;;;;;;17.30;12.90;;;;;;;;;;6200012;23;20169;-81
2022/12/26 08:15:24;;;;;;;14.27;12.77;;;;;;;;;;6199627;23;20176;-81
2022/12/26 08:17:49;;;;;;;20.00;12.03;;;;;;;;;;6199978;23;20141;-80
2022/12/26 08:20:15;;;;;;;14.30;11.87;;;;;;;;;;6200624;23;20152;-80
2022/12/26 08:22:40;;;;;;;13.80;12.30;;;;;;;;;;6200460;23;20148;-80
2022/12/26 08:25:06;;;;;;;17.30;11.87;;;;;;;;;;6199844;23;20156;-80
2022/12/26 08:27:32;;;;;;;16.30;12.00;;;;;;;;;;6196357;23;20157;-79
2022/12/26 08:29:57;;;;;;;18.17;13.63;;;;;;;;;;6198091;23;20698;-80
2022/12/26 08:32:23;;;;;;;20.27;12.70;;;;;;;;;;6197525;23;20368;-81
2022/12/26 08:34:48;;;;;;;18.43;10.37;;;;;;;;;;6198132;23;20176;-80
2022/12/26 08:37:13;;;;;;;15.20;11.00;;;;;;;;;;6198088;23;20212;-81
2022/12/26 08:39:39;;;;;;;11.60;9.70;;;;;;;;;;6200066;23;20145;-81
2022/12/26 08:42:04;;;;;;;19.97;8.73;;;;;;;;;;6198456;23;20144;-80
2022/12/26 08:44:29;;;;;;;14.50;8.87;;;;;;;;;;6195190;23;20165;-81
2022/12/26 08:46:55;;;;;;;14.00;8.17;;;;;;;;;;6197280;23;20153;-81
2022/12/26 08:49:20;;;;;;;11.63;7.63;;;;;;;;;;6195161;23;20140;-81
2022/12/26 08:51:45;;;;;;;13.43;7.10;;;;;;;;;;6194864;23;20218;-79
2022/12/26 08:54:11;;;;;;;11.77;7.20;;;;;;;;;;6197059;23;20178;-80
2022/12/26 08:56:36;;;;;;;9.93;7.60;;;;;;;;;;6192980;23;20187;-80
2022/12/26 08:59:01;;;;;;;15.13;6.67;;;;;;;;;;6189393;23;20148;-79
2022/12/26 09:01:28;;;;;;;8.00;6.90;;;;;;;;;;6186882;23;20141;-80
2022/12/26 09:03:55;;;;;;;11.17;6.83;;;;;;;;;;6187656;23;20195;-80
2022/12/26 09:06:21;;;;;;;15.57;7.60;;;;;;;;;;6189908;23;20372;-77
2022/12/26 09:08:46;;;;;;;11.17;6.70;;;;;;;;;;6191676;23;20376;-78
2022/12/26 09:11:13;;;;;;;10.87;6.97;;;;;;;;;;6192153;23;20599;-79
2022/12/26 09:13:39;;;;;;;11.70;7.77;;;;;;;;;;6196020;23;20184;-80
2022/12/26 09:16:04;;;;;;;10.30;7.07;;;;;;;;;;6196162;23;20486;-81
2022/12/26 09:18:30;;;;;;;9.40;7.40;;;;;;;;;;6199256;23;20447;-80
2022/12/26 09:20:58;;;;;;;12.97;7.63;;;;;;;;;;6193743;23;20149;-80
2022/12/26 09:23:23;;;;;;;8.20;6.90;;;;;;;;;;6186575;23;20169;-78
2022/12/26 09:25:48;;;;;;;12.53;8.40;;;;;;;;;;6190093;23;20542;-80
2022/12/26 09:28:44;;;;;;;;;;;;;;;;;;;;;
2022/12/26 09:31:15;;;;;;;11.60;7.77;;;;;;;;;;6180515;23;20264;-79
2022/12/26 09:33:40;;;;;;;11.27;7.23;;;;;;;;;;6184525;23;20492;-78
2022/12/26 09:36:07;;;;;;;15.67;7.73;;;;;;;;;;6186203;23;20423;-78
2022/12/26 09:38:33;;;;;;;13.47;8.00;;;;;;;;;;6185342;23;20156;-78
2022/12/26 09:41:17;;;;;;;8.50;7.10;;;;;;;;;;6189642;23;20376;-81
2022/12/26 09:44:01;;;;;;;13.83;8.00;;;;;;;;;;6188968;23;20403;-80
2022/12/26 09:46:33;;;;;;;13.80;7.20;;;;;;;;;;6191652;23;20511;-78
2022/12/26 09:49:17;;;;;;;11.27;7.37;;;;;;;;;;6176854;23;20395;-76
2022/12/26 09:51:45;;;;;;;12.17;7.87;;;;;;;;;;6183126;23;20713;-78
2022/12/26 09:54:30;;;;;;;10.90;7.37;;;;;;;;;;6187013;23;20471;-79
2022/12/26 09:56:57;;;;;;;11.53;8.03;;;;;;;;;;6160466;23;20911;-78
2022/12/26 09:59:24;;;;;;;9.07;6.47;;;;;;;;;;6179497;23;20368;-78
2022/12/26 10:01:51;;;;;;;14.20;6.90;;;;;;;;;;6177002;23;20376;-78
2022/12/26 10:04:20;;;;;;;10.67;7.63;;;;;;;;;;6182578;23;20499;-79
2022/12/26 10:06:48;;;;;;;13.53;7.20;;;;;;;;;;6183320;23;20360;-81
2022/12/26 10:09:22;;;;;;;10.10;6.57;;;;;;;;;;6185936;23;20670;-78
2022/12/26 10:12:02;;;;;;;9.17;6.20;;;;;;;;;;6181416;23;20368;-78
2022/12/26 10:14:50;;;;;;;7.47;5.10;;;;;;;;;;6180410;23;20407;-78
2022/12/26 10:17:33;;;;;;;8.60;5.37;;;;;;;;;;6182766;23;20453;-78
2022/12/26 10:20:04;;;;;;;9.37;4.97;;;;;;;;;;6171048;23;20452;-79
2022/12/26 10:22:49;;;;;;;8.73;4.93;;;;;;;;;;6180542;23;20373;-81
2022/12/26 10:25:16;;;;;;;8.10;4.20;;;;;;;;;;6182375;23;20750;-78
2022/12/26 10:27:44;;;;;;;10.40;3.80;;;;;;;;;;6182977;23;20396;-77
2022/12/26 10:30:14;;;;;;;7.80;3.53;;;;;;;;;;6181732;23;20502;-78
2022/12/26 10:32:42;;;;;;;7.13;2.90;;;;;;;;;;6187945;23;20386;-80
2022/12/26 10:35:18;;;;;;;8.77;2.90;;;;;;;;;;6187073;23;20422;-78
2022/12/26 10:37:43;;;;;;;6.70;2.53;;;;;;;;;;6180766;23;20506;-76
2022/12/26 10:40:23;;;;;;;10.93;3.10;;;;;;;;;;6179030;23;20442;-77
2022/12/26 10:42:59;;;;;;;9.43;3.47;;;;;;;;;;6178857;23;20152;-77
2022/12/26 10:45:36;;;;;;;10.57;2.50;;;;;;;;;;6182350;23;20826;-81
2022/12/26 10:48:02;;;;;;;11.30;2.27;;;;;;;;;;6189882;23;20360;-80
2022/12/26 10:50:33;;;;;;;9.30;1.83;;;;;;;;;;6175682;23;20917;-77
2022/12/26 10:52:59;;;;;;;13.40;2.33;;;;;;;;;;6174200;23;20184;-79
2022/12/26 10:55:26;;;;;;;12.80;2.70;;;;;;;;;;6178229;23;20897;-77
2022/12/26 10:57:52;;;;;;;8.40;2.77;;;;;;;;;;6176098;23;20378;-80
2022/12/26 11:00:18;;;;;;;11.37;3.13;;;;;;;;;;6183331;23;20367;-78
2022/12/26 11:02:43;;;;;;;13.13;2.40;;;;;;;;;;6180419;23;20376;-79
2022/12/26 11:05:10;;;;;;;12.90;2.30;;;;;;;;;;6184093;23;20602;-78
2022/12/26 11:07:36;;;;;;;10.07;2.70;;;;;;;;;;6180297;23;20243;-78
2022/12/26 11:10:03;;;;;;;19.10;3.23;;;;;;;;;;6180707;23;20372;-78
2022/12/26 11:12:28;;;;;;;10.30;2.33;;;;;;;;;;6180315;23;20368;-77
2022/12/26 11:14:58;;;;;;;12.50;2.57;;;;;;;;;;6180565;23;20407;-75
2022/12/26 11:17:24;;;;;;;16.00;2.47;;;;;;;;;;6180160;23;20223;-76
2022/12/26 11:20:07;;;;;;;13.13;2.50;;;;;;;;;;6179427;23;20410;-77
2022/12/26 11:22:32;;;;;;;13.03;2.57;;;;;;;;;;6178668;23;20356;-78
2022/12/26 11:25:06;;;;;;;9.63;2.00;;;;;;;;;;6182781;23;20399;-77
2022/12/26 11:27:32;;;;;;;19.50;3.03;;;;;;;;;;6181252;23;20598;-77
2022/12/26 11:30:18;;;;;;;12.30;2.80;;;;;;;;;;6185228;23;20371;-76
2022/12/26 11:32:48;;;;;;;17.00;3.50;;;;;;;;;;6166705;23;20405;-78
2022/12/26 11:35:17;;;;;;;12.70;2.50;;;;;;;;;;6186032;23;20935;-80
2022/12/26 11:37:44;;;;;;;15.80;2.90;;;;;;;;;;6191001;23;20832;-80
2022/12/26 11:40:23;;;;;;;12.70;1.97;;;;;;;;;;6187420;23;20368;-80
2022/12/26 11:42:51;;;;;;;11.00;2.77;;;;;;;;;;6179236;23;20733;-79
2022/12/26 11:45:20;;;;;;;8.27;2.30;;;;;;;;;;6181245;23;20375;-78
2022/12/26 11:47:46;;;;;;;8.17;2.00;;;;;;;;;;6169514;23;20382;-77
2022/12/26 11:50:18;;;;;;;9.23;2.30;;;;;;;;;;6173430;23;20400;-77
2022/12/26 11:52:44;;;;;;;10.87;1.80;;;;;;;;;;6173835;23;20159;-77
2022/12/26 11:55:21;;;;;;;12.40;2.07;;;;;;;;;;6174908;23;20428;-78
2022/12/26 11:58:05;;;;;;;13.20;3.27;;;;;;;;;;6175205;23;20159;-76
2022/12/26 12:00:43;;;;;;;12.33;2.37;;;;;;;;;;6176366;23;20747;-77
2022/12/26 12:03:16;;;;;;;7.13;1.77;;;;;;;;;;6175029;23;20406;-77
2022/12/26 12:06:00;;;;;;;11.00;2.00;;;;;;;;;;6175746;23;20380;-77
2022/12/26 12:08:32;;;;;;;12.33;2.07;;;;;;;;;;6170422;23;20369;-77
2022/12/26 12:11:05;;;;;;;8.67;1.90;;;;;;;;;;6173574;23;20383;-76
2022/12/26 12:13:39;;;;;;;7.27;1.80;;;;;;;;;;6175888;23;20415;-76
2022/12/26 12:16:07;;;;;;;10.43;1.43;;;;;;;;;;6175564;23;20423;-77
2022/12/26 12:18:42;;;;;;;16.97;2.20;;;;;;;;;;6177387;23;20455;-79
2022/12/26 12:21:13;;;;;;;7.60;1.60;;;;;;;;;;6172691;23;20364;-78
2022/12/26 12:23:54;;;;;;;12.70;2.37;;;;;;;;;;6177673;23;20744;-79
2022/12/26 12:26:30;;;;;;;9.30;2.27;;;;;;;;;;6175081;23;20455;-77
2022/12/26 12:29:14;;;;;;;10.67;1.70;;;;;;;;;;6172418;23;20710;-78
2022/12/26 12:31:42;;;;;;;10.63;1.40;;;;;;;;;;6178176;23;20434;-78
2022/12/26 12:34:17;;;;;;;10.53;1.80;;;;;;;;;;6179586;23;20462;-77
2022/12/26 12:37:00;;;;;;;9.23;1.83;;;;;;;;;;6179960;23;20410;-77
2022/12/26 12:39:55;;;;;;;9.27;1.63;;;;;;;;;;6177724;23;20422;-73
2022/12/26 12:42:23;;;;;;;6.73;1.97;;;;;;;;;;6166708;23;21037;-78
2022/12/26 12:44:48;;;;;;;8.60;1.87;;;;;;;;;;6180065;23;20422;-79
2022/12/26 12:47:17;;;;;;;13.17;2.20;;;;;;;;;;6179179;23;20423;-78
2022/12/26 12:50:01;;;;;;;13.70;2.10;;;;;;;;;;6178651;23;20145;-79
2022/12/26 12:52:35;;;;;;;9.63;2.10;;;;;;;;;;6190097;23;20689;-79
2022/12/26 12:55:13;;;;;;;11.30;3.53;;;;;;;;;;6190197;23;20379;-80
2022/12/26 12:58:04;;;;;;;10.00;2.37;;;;;;;;;;6192133;23;20347;-80
2022/12/26 13:00:33;;;;;;;12.03;2.60;;;;;;;;;;6183517;23;20730;-79
2022/12/26 13:03:04;;;;;;;11.10;2.00;;;;;;;;;;6187404;23;20750;-79
2022/12/26 13:05:29;;;;;;;18.33;3.30;;;;;;;;;;6183065;23;20383;-80
2022/12/26 13:08:01;;;;;;;12.90;2.33;;;;;;;;;;6186207;23;20376;-79
2022/12/26 13:10:29;;;;;;;13.47;2.67;;;;;;;;;;6192158;23;20152;-79
2022/12/26 13:12:55;;;;;;;10.70;2.30;;;;;;;;;;6180755;23;20482;-82
2022/12/26 13:15:24;;;;;;;13.27;2.97;;;;;;;;;;6174699;23;20469;-77
2022/12/26 13:18:04;;;;;;;9.40;2.37;;;;;;;;;;6177482;23;20872;-76
2022/12/26 13:20:59;;;;;;;18.80;2.73;;;;;;;;;;6175097;23;20378;-76
2022/12/26 13:26:15;;;;;;;11.83;2.90;;;;;;;;;;6183193;23;20448;-76
2022/12/26 13:29:03;;;;;;;16.20;2.43;;;;;;;;;;6181210;23;20364;-76
2022/12/26 13:31:35;;;;;;;16.97;2.77;;;;;;;;;;6162252;23;20384;-76
2022/12/26 13:34:01;;;;;;;10.70;3.23;;;;;;;;;;6183185;23;20392;-75
2022/12/26 13:36:53;;;;;;;15.73;2.30;;;;;;;;;;6180731;23;20515;-75
2022/12/26 13:39:21;;;;;;;19.73;4.40;;;;;;;;;;6198589;23;20175;-77
2022/12/26 13:44:36;;;;;;;19.40;3.27;;;;;;;;;;6197775;23;20415;-82
2022/12/26 13:47:02;;;;;;;18.33;3.37;;;;;;;;;;6201411;23;20359;-81
2022/12/26 13:49:38;;;;;;;15.03;3.80;;;;;;;;;;6197281;23;20606;-79
2022/12/26 13:52:09;;;;;;;23.43;4.07;;;;;;;;;;6187344;23;20657;-81
2022/12/26 13:54:35;;;;;;;11.53;2.27;;;;;;;;;;6189285;23;20467;-75
2022/12/26 13:57:14;;;;;;;12.90;2.57;;;;;;;;;;6183213;23;20447;-81
2022/12/26 13:59:47;;;;;;;11.70;2.53;;;;;;;;;;6180844;23;20372;-80
2022/12/26 14:02:31;;;;;;;16.63;3.20;;;;;;;;;;6179549;23;20705;-78
2022/12/26 14:05:08;;;;;;;9.00;2.13;;;;;;;;;;6179536;23;20434;-77
2022/12/26 14:07:41;;;;;;;13.73;2.47;;;;;;;;;;6180334;23;20361;-76
2022/12/26 14:10:16;;;;;;;15.63;3.60;;;;;;;;;;6180558;23;20372;-76
2022/12/26 14:12:47;;;;;;;11.53;3.53;;;;;;;;;;6177966;23;20471;-76
2022/12/26 14:15:21;;;;;;;11.33;3.00;;;;;;;;;;6179812;23;20506;-76
2022/12/26 14:17:46;;;;;;;18.23;4.33;;;;;;;;;;6176724;23;20391;-76
2022/12/26 14:20:14;;;;;;;15.07;3.87;;;;;;;;;;6178177;23;20430;-76
2022/12/26 14:23:00;;;;;;;12.10;3.63;;;;;;;;;;6178787;23;20145;-77
2022/12/26 14:25:28;;;;;;;17.23;3.93;;;;;;;;;;6201386;23;20383;-77
2022/12/26 14:28:16;;;;;;;17.80;2.73;;;;;;;;;;6195917;23;20382;-82
2022/12/26 14:30:53;;;;;;;12.23;2.60;;;;;;;;;;6190813;23;20443;-80
2022/12/26 14:33:23;;;;;;;14.00;3.17;;;;;;;;;;6184367;23;20387;-82
2022/12/26 14:36:07;;;;;;;10.67;2.93;;;;;;;;;;6192345;23;20428;-82
2022/12/26 14:38:55;;;;;;;9.07;2.30;;;;;;;;;;6191824;23;20392;-83
2022/12/26 14:44:08;;;;;;;10.13;2.33;;;;;;;;;;6178809;23;20386;-75
2022/12/26 14:46:37;;;;;;;12.77;3.10;;;;;;;;;;6181574;23;20372;-76
2022/12/26 14:49:23;;;;;;;15.53;3.50;;;;;;;;;;6181339;23;20471;-76
2022/12/26 14:51:49;;;;;;;13.83;3.03;;;;;;;;;;6181498;23;20368;-76
2022/12/26 14:54:31;;;;;;;17.23;3.03;;;;;;;;;;6180033;23;20478;-76
2022/12/26 14:56:57;;;;;;;7.00;2.60;;;;;;;;;;6181515;23;20327;-76
2022/12/26 14:59:30;;;;;;;14.03;3.23;;;;;;;;;;6181398;23;20421;-75
2022/12/26 15:02:00;;;;;;;16.60;2.57;;;;;;;;;;6180413;23;20153;-75
2022/12/26 15:04:39;;;;;;;17.13;3.17;;;;;;;;;;6180994;23;20870;-76
2022/12/26 15:07:04;;;;;;;11.50;2.30;;;;;;;;;;6178406;23;20372;-75
2022/12/26 15:09:40;;;;;;;11.93;3.10;;;;;;;;;;6180149;23;20841;-76
2022/12/26 15:12:19;;;;;;;11.63;3.07;;;;;;;;;;6180343;23;20159;-76
2022/12/26 15:14:51;;;;;;;11.40;2.93;;;;;;;;;;6177278;23;20410;-76
2022/12/26 15:17:25;;;;;;;11.50;2.83;;;;;;;;;;6179551;23;20736;-76
2022/12/26 15:20:19;;;;;;;12.70;2.60;;;;;;;;;;6181421;23;20650;-76
2022/12/26 15:22:59;;;;;;;14.63;4.10;;;;;;;;;;6073889;23;20882;-75
2022/12/26 15:25:25;;;;;;;18.33;4.00;;;;;;;;;;6180783;23;20372;-75
2022/12/26 15:27:56;;;;;;;13.40;2.90;;;;;;;;;;6218241;22;20488;-70
2022/12/26 15:30:27;;;;;;;12.27;2.73;;;;;;;;;;6238589;23;20601;-71
2022/12/26 15:33:11;;;;;;;11.10;2.80;;;;;;;;;;6239123;23;20382;-71
2022/12/26 15:35:43;;;;;;;12.87;2.77;;;;;;;;;;6240041;23;20748;-71
2022/12/26 15:38:16;;;;;;;14.40;3.07;;;;;;;;;;6209280;23;20394;-70
2022/12/26 15:40:43;;;;;;;15.40;2.33;;;;;;;;;;6211108;23;20356;-70
2022/12/26 15:43:27;;;;;;;8.30;2.67;;;;;;;;;;6210015;23;20397;-71
2022/12/26 15:45:56;;;;;;;12.77;3.40;;;;;;;;;;6210710;23;20363;-71
2022/12/26 15:48:21;;;;;;;13.10;3.00;;;;;;;;;;6231530;23;20721;-71
2022/12/26 15:50:58;;;;;;;7.63;2.73;;;;;;;;;;6211184;23;20367;-70
2022/12/26 15:53:41;;;;;;;11.00;3.03;;;;;;;;;;6207997;23;20155;-71
2022/12/26 15:56:29;;;;;;;19.03;3.80;;;;;;;;;;6208316;23;20733;-71
2022/12/26 15:59:06;;;;;;;13.70;3.43;;;;;;;;;;6209156;23;20386;-68
2022/12/26 16:01:35;;;;;;;11.63;3.70;;;;;;;;;;6210259;23;20889;-69
2022/12/26 16:04:02;;;;;;;11.47;3.17;;;;;;;;;;6233828;23;20386;-71
2022/12/26 16:06:40;;;;;;;13.20;2.80;;;;;;;;;;6211392;23;20397;-69
2022/12/26 16:09:17;;;;;;;17.30;2.60;;;;;;;;;;6211849;23;20421;-69
2022/12/26 16:11:50;;;;;;;15.57;3.40;;;;;;;;;;6212635;23;20857;-69
2022/12/26 16:14:25;;;;;;;16.90;2.93;;;;;;;;;;6211752;23;20454;-69
2022/12/26 16:16:50;;;;;;;9.87;2.50;;;;;;;;;;6211432;23;20904;-68
2022/12/26 16:19:22;;;;;;;8.40;2.93;;;;;;;;;;6211444;23;20370;-69
2022/12/26 16:24:44;;;;;;;12.03;2.80;;;;;;;;;;6210959;23;20836;-70
2022/12/26 16:27:14;;;;;;;10.93;3.27;;;;;;;;;;6235492;23;20481;-68
2022/12/26 16:29:44;;;;;;;16.73;3.83;;;;;;;;;;6205655;23;20856;-69
2022/12/26 16:32:13;;;;;;;12.07;3.33;;;;;;;;;;6211595;23;20834;-70
2022/12/26 16:34:38;;;;;;;9.23;2.67;;;;;;;;;;6208515;23;20729;-68
2022/12/26 16:37:03;;;;;;;14.27;2.77;;;;;;;;;;6235819;23;20427;-69
2022/12/26 16:39:29;;;;;;;7.33;2.27;;;;;;;;;;6234483;23;20156;-69
2022/12/26 16:41:57;;;;;;;13.50;2.83;;;;;;;;;;6212528;23;20606;-68
2022/12/26 16:44:27;;;;;;;6.50;2.60;;;;;;;;;;6211921;23;20246;-71
2022/12/26 16:46:53;;;;;;;13.23;3.27;;;;;;;;;;6212628;23;20840;-68
2022/12/26 16:49:19;;;;;;;16.67;3.50;;;;;;;;;;6210359;23;20394;-69
2022/12/26 16:51:46;;;;;;;15.97;3.30;;;;;;;;;;6210882;23;20591;-68
2022/12/26 16:54:16;;;;;;;14.80;3.13;;;;;;;;;;6208757;23;20148;-71